sensor_id;sensor_type;location;lat;lon;timestamp;P1;durP1;ratioP1;P2;durP2;ratioP2
44989;SDS011;30723;51.206;3.326;2023-02-15T00:02:26;95.97;;;50.03;;
44989;SDS011;30723;51.206;3.326;2023-02-15T00:04:53;374.40;;;59.20;;
44989;SDS011;30723;51.206;3.326;2023-02-15T00:07:21;243.98;;;53.85;;
44989;SDS011;30723;51.206;3.326;2023-02-15T00:09:47;100.60;;;51.22;;
44989;SDS011;30723;51.206;3.326;2023-02-15T00:12:14;95.00;;;50.42;;
44989;SDS011;30723;51.206;3.326;2023-02-15T00:14:41;113.57;;;51.30;;
44989;SDS011;30723;51.206;3.326;2023-02-15T00:17:07;98.82;;;50.63;;
44989;SDS011;30723;51.206;3.326;2023-02-15T00:19:34;221.20;;;57.22;;
44989;SDS011;30723;51.206;3.326;2023-02-15T00:22:00;186.73;;;56.38;;
44989;SDS011;30723;51.206;3.326;2023-02-15T00:24:27;113.35;;;54.97;;
44989;SDS011;30723;51.206;3.326;2023-02-15T00:26:53;93.82;;;52.30;;
44989;SDS011;30723;51.206;3.326;2023-02-15T00:29:19;92.28;;;51.75;;
44989;SDS011;30723;51.206;3.326;2023-02-15T00:31:45;108.88;;;52.90;;
44989;SDS011;30723;51.206;3.326;2023-02-15T00:34:20;114.30;;;58.03;;
44989;SDS011;30723;51.206;3.326;2023-02-15T00:36:48;240.35;;;61.45;;
44989;SDS011;30723;51.206;3.326;2023-02-15T00:39:15;136.73;;;59.80;;
44989;SDS011;30723;51.206;3.326;2023-02-15T00:41:43;215.70;;;61.25;;
44989;SDS011;30723;51.206;3.326;2023-02-15T00:44:11;242.95;;;61.00;;
44989;SDS011;30723;51.206;3.326;2023-02-15T00:46:38;169.23;;;58.20;;
44989;SDS011;30723;51.206;3.326;2023-02-15T00:49:05;121.80;;;55.95;;
44989;SDS011;30723;51.206;3.326;2023-02-15T00:51:31;104.70;;;54.80;;
44989;SDS011;30723;51.206;3.326;2023-02-15T00:53:58;115.05;;;56.33;;
44989;SDS011;30723;51.206;3.326;2023-02-15T00:56:25;133.98;;;56.70;;
44989;SDS011;30723;51.206;3.326;2023-02-15T00:58:53;140.32;;;54.90;;
44989;SDS011;30723;51.206;3.326;2023-02-15T01:01:20;142.07;;;53.97;;
44989;SDS011;30723;51.206;3.326;2023-02-15T01:03:47;195.82;;;57.15;;
44989;SDS011;30723;51.206;3.326;2023-02-15T01:06:14;280.60;;;59.47;;
44989;SDS011;30723;51.206;3.326;2023-02-15T01:08:41;146.10;;;56.15;;
44989;SDS011;30723;51.206;3.326;2023-02-15T01:11:10;287.75;;;60.08;;
44989;SDS011;30723;51.206;3.326;2023-02-15T01:13:38;333.60;;;59.10;;
44989;SDS011;30723;51.206;3.326;2023-02-15T01:16:04;330.05;;;56.25;;
44989;SDS011;30723;51.206;3.326;2023-02-15T01:18:31;302.85;;;53.28;;
44989;SDS011;30723;51.206;3.326;2023-02-15T01:20:59;310.80;;;52.78;;
44989;SDS011;30723;51.206;3.326;2023-02-15T01:23:25;309.85;;;53.72;;
44989;SDS011;30723;51.206;3.326;2023-02-15T01:25:51;348.95;;;54.42;;
44989;SDS011;30723;51.206;3.326;2023-02-15T01:28:18;324.90;;;56.40;;
44989;SDS011;30723;51.206;3.326;2023-02-15T01:30:44;220.15;;;51.17;;
44989;SDS011;30723;51.206;3.326;2023-02-15T01:33:11;187.00;;;47.95;;
44989;SDS011;30723;51.206;3.326;2023-02-15T01:35:42;319.35;;;52.22;;
44989;SDS011;30723;51.206;3.326;2023-02-15T01:38:13;259.67;;;53.15;;
44989;SDS011;30723;51.206;3.326;2023-02-15T01:40:40;246.75;;;52.05;;
44989;SDS011;30723;51.206;3.326;2023-02-15T01:43:10;153.20;;;50.13;;
44989;SDS011;30723;51.206;3.326;2023-02-15T01:45:37;96.50;;;50.97;;
44989;SDS011;30723;51.206;3.326;2023-02-15T01:48:06;86.20;;;48.45;;
44989;SDS011;30723;51.206;3.326;2023-02-15T01:50:47;87.20;;;48.53;;
44989;SDS011;30723;51.206;3.326;2023-02-15T01:53:22;84.53;;;47.03;;
44989;SDS011;30723;51.206;3.326;2023-02-15T01:56:05;92.70;;;48.13;;
44989;SDS011;30723;51.206;3.326;2023-02-15T01:58:35;103.05;;;48.60;;
44989;SDS011;30723;51.206;3.326;2023-02-15T02:01:03;97.88;;;44.88;;
44989;SDS011;30723;51.206;3.326;2023-02-15T02:03:38;84.57;;;47.25;;
44989;SDS011;30723;51.206;3.326;2023-02-15T02:06:16;80.65;;;46.78;;
44989;SDS011;30723;51.206;3.326;2023-02-15T02:08:42;79.45;;;46.40;;
44989;SDS011;30723;51.206;3.326;2023-02-15T02:11:13;75.88;;;45.22;;
44989;SDS011;30723;51.206;3.326;2023-02-15T02:13:40;83.20;;;46.65;;
44989;SDS011;30723;51.206;3.326;2023-02-15T02:35:44;77.20;;;44.08;;
44989;SDS011;30723;51.206;3.326;2023-02-15T02:43:50;74.38;;;42.58;;
44989;SDS011;30723;51.206;3.326;2023-02-15T02:47:08;74.10;;;44.38;;
44989;SDS011;30723;51.206;3.326;2023-02-15T02:49:37;70.90;;;42.70;;
44989;SDS011;30723;51.206;3.326;2023-02-15T02:52:40;75.95;;;41.75;;
44989;SDS011;30723;51.206;3.326;2023-02-15T02:58:01;66.03;;;40.60;;
44989;SDS011;30723;51.206;3.326;2023-02-15T03:00:44;71.15;;;41.10;;
44989;SDS011;30723;51.206;3.326;2023-02-15T03:05:50;69.95;;;41.78;;
44989;SDS011;30723;51.206;3.326;2023-02-15T03:08:22;64.60;;;40.17;;
44989;SDS011;30723;51.206;3.326;2023-02-15T03:13:21;71.50;;;39.83;;
44989;SDS011;30723;51.206;3.326;2023-02-15T03:15:47;78.32;;;44.47;;
44989;SDS011;30723;51.206;3.326;2023-02-15T03:18:39;92.10;;;46.13;;
44989;SDS011;30723;51.206;3.326;2023-02-15T03:21:27;130.85;;;48.03;;
44989;SDS011;30723;51.206;3.326;2023-02-15T03:24:32;127.55;;;48.70;;
44989;SDS011;30723;51.206;3.326;2023-02-15T03:27:15;105.78;;;49.05;;
44989;SDS011;30723;51.206;3.326;2023-02-15T03:29:48;177.65;;;48.40;;
44989;SDS011;30723;51.206;3.326;2023-02-15T03:32:18;101.18;;;47.53;;
44989;SDS011;30723;51.206;3.326;2023-02-15T03:34:45;122.20;;;46.78;;
44989;SDS011;30723;51.206;3.326;2023-02-15T03:42:31;300.38;;;56.58;;
44989;SDS011;30723;51.206;3.326;2023-02-15T03:47:34;222.38;;;54.72;;
44989;SDS011;30723;51.206;3.326;2023-02-15T03:52:53;157.00;;;50.30;;
44989;SDS011;30723;51.206;3.326;2023-02-15T03:55:22;226.98;;;49.25;;
44989;SDS011;30723;51.206;3.326;2023-02-15T03:57:49;171.15;;;49.17;;
44989;SDS011;30723;51.206;3.326;2023-02-15T04:00:35;90.40;;;47.47;;
44989;SDS011;30723;51.206;3.326;2023-02-15T04:03:29;106.75;;;48.13;;
44989;SDS011;30723;51.206;3.326;2023-02-15T04:06:06;89.68;;;45.42;;
44989;SDS011;30723;51.206;3.326;2023-02-15T04:08:32;98.72;;;46.47;;
44989;SDS011;30723;51.206;3.326;2023-02-15T04:11:16;126.20;;;47.08;;
44989;SDS011;30723;51.206;3.326;2023-02-15T04:13:42;107.93;;;46.00;;
44989;SDS011;30723;51.206;3.326;2023-02-15T04:16:08;108.07;;;48.08;;
44989;SDS011;30723;51.206;3.326;2023-02-15T04:18:36;98.38;;;48.95;;
44989;SDS011;30723;51.206;3.326;2023-02-15T04:21:23;90.82;;;47.63;;
44989;SDS011;30723;51.206;3.326;2023-02-15T04:24:10;92.55;;;46.08;;
44989;SDS011;30723;51.206;3.326;2023-02-15T04:26:56;89.40;;;46.67;;
44989;SDS011;30723;51.206;3.326;2023-02-15T04:29:23;92.97;;;47.00;;
44989;SDS011;30723;51.206;3.326;2023-02-15T04:31:51;97.43;;;49.40;;
44989;SDS011;30723;51.206;3.326;2023-02-15T04:34:18;98.88;;;50.80;;
44989;SDS011;30723;51.206;3.326;2023-02-15T04:36:47;92.13;;;48.97;;
44989;SDS011;30723;51.206;3.326;2023-02-15T04:39:16;102.97;;;50.60;;
44989;SDS011;30723;51.206;3.326;2023-02-15T04:41:44;99.05;;;49.80;;
44989;SDS011;30723;51.206;3.326;2023-02-15T04:44:12;106.70;;;53.58;;
44989;SDS011;30723;51.206;3.326;2023-02-15T04:46:39;126.45;;;52.42;;
44989;SDS011;30723;51.206;3.326;2023-02-15T04:49:07;107.88;;;52.92;;
44989;SDS011;30723;51.206;3.326;2023-02-15T04:51:34;122.72;;;55.05;;
44989;SDS011;30723;51.206;3.326;2023-02-15T04:54:03;140.45;;;60.50;;
44989;SDS011;30723;51.206;3.326;2023-02-15T04:56:29;136.60;;;60.45;;
44989;SDS011;30723;51.206;3.326;2023-02-15T04:58:56;151.40;;;67.40;;
44989;SDS011;30723;51.206;3.326;2023-02-15T05:01:22;159.25;;;71.30;;
44989;SDS011;30723;51.206;3.326;2023-02-15T05:03:51;171.27;;;72.47;;
44989;SDS011;30723;51.206;3.326;2023-02-15T05:06:17;167.43;;;68.88;;
44989;SDS011;30723;51.206;3.326;2023-02-15T05:08:44;159.18;;;68.32;;
44989;SDS011;30723;51.206;3.326;2023-02-15T05:11:11;166.65;;;68.65;;
44989;SDS011;30723;51.206;3.326;2023-02-15T05:13:37;165.40;;;67.22;;
44989;SDS011;30723;51.206;3.326;2023-02-15T05:16:04;153.05;;;65.60;;
44989;SDS011;30723;51.206;3.326;2023-02-15T05:18:31;157.40;;;65.50;;
44989;SDS011;30723;51.206;3.326;2023-02-15T05:20:57;176.30;;;69.25;;
44989;SDS011;30723;51.206;3.326;2023-02-15T05:23:24;168.80;;;69.70;;
44989;SDS011;30723;51.206;3.326;2023-02-15T05:25:51;179.02;;;73.57;;
44989;SDS011;30723;51.206;3.326;2023-02-15T05:28:36;171.60;;;72.97;;
44989;SDS011;30723;51.206;3.326;2023-02-15T05:33:39;185.20;;;74.32;;
44989;SDS011;30723;51.206;3.326;2023-02-15T05:36:06;284.55;;;73.35;;
44989;SDS011;30723;51.206;3.326;2023-02-15T05:38:34;309.58;;;73.43;;
44989;SDS011;30723;51.206;3.326;2023-02-15T05:41:02;346.10;;;72.60;;
44989;SDS011;30723;51.206;3.326;2023-02-15T05:43:30;324.63;;;68.47;;
44989;SDS011;30723;51.206;3.326;2023-02-15T05:45:57;223.15;;;69.03;;
44989;SDS011;30723;51.206;3.326;2023-02-15T05:48:25;163.50;;;64.05;;
44989;SDS011;30723;51.206;3.326;2023-02-15T05:50:59;149.70;;;66.82;;
44989;SDS011;30723;51.206;3.326;2023-02-15T05:53:30;139.45;;;64.78;;
44989;SDS011;30723;51.206;3.326;2023-02-15T05:55:57;203.68;;;60.60;;
44989;SDS011;30723;51.206;3.326;2023-02-15T05:58:25;459.67;;;67.82;;
44989;SDS011;30723;51.206;3.326;2023-02-15T06:00:54;264.30;;;62.70;;
44989;SDS011;30723;51.206;3.326;2023-02-15T06:03:21;279.85;;;63.47;;
44989;SDS011;30723;51.206;3.326;2023-02-15T06:05:48;140.60;;;63.95;;
44989;SDS011;30723;51.206;3.326;2023-02-15T06:08:14;139.23;;;60.78;;
44989;SDS011;30723;51.206;3.326;2023-02-15T06:10:41;150.50;;;66.65;;
44989;SDS011;30723;51.206;3.326;2023-02-15T06:13:07;152.43;;;67.15;;
44989;SDS011;30723;51.206;3.326;2023-02-15T06:15:34;160.77;;;68.82;;
44989;SDS011;30723;51.206;3.326;2023-02-15T06:18:00;166.93;;;68.70;;
44989;SDS011;30723;51.206;3.326;2023-02-15T06:20:27;164.38;;;68.40;;
44989;SDS011;30723;51.206;3.326;2023-02-15T06:22:53;161.93;;;70.20;;
44989;SDS011;30723;51.206;3.326;2023-02-15T06:25:19;159.60;;;70.20;;
44989;SDS011;30723;51.206;3.326;2023-02-15T06:27:46;162.15;;;70.07;;
44989;SDS011;30723;51.206;3.326;2023-02-15T06:30:12;177.60;;;72.47;;
44989;SDS011;30723;51.206;3.326;2023-02-15T06:32:40;173.23;;;72.70;;
44989;SDS011;30723;51.206;3.326;2023-02-15T06:35:07;163.57;;;73.13;;
44989;SDS011;30723;51.206;3.326;2023-02-15T06:37:34;179.77;;;74.05;;
44989;SDS011;30723;51.206;3.326;2023-02-15T06:40:00;169.52;;;71.63;;
44989;SDS011;30723;51.206;3.326;2023-02-15T06:42:28;171.15;;;74.57;;
44989;SDS011;30723;51.206;3.326;2023-02-15T06:44:55;177.40;;;74.15;;
44989;SDS011;30723;51.206;3.326;2023-02-15T06:47:22;172.00;;;72.63;;
44989;SDS011;30723;51.206;3.326;2023-02-15T06:49:50;171.13;;;73.80;;
44989;SDS011;30723;51.206;3.326;2023-02-15T06:52:17;179.20;;;72.00;;
44989;SDS011;30723;51.206;3.326;2023-02-15T06:54:43;165.70;;;72.07;;
44989;SDS011;30723;51.206;3.326;2023-02-15T06:57:10;169.60;;;71.47;;
44989;SDS011;30723;51.206;3.326;2023-02-15T06:59:36;175.25;;;72.55;;
44989;SDS011;30723;51.206;3.326;2023-02-15T07:02:02;175.63;;;71.30;;
44989;SDS011;30723;51.206;3.326;2023-02-15T07:04:29;176.05;;;70.35;;
44989;SDS011;30723;51.206;3.326;2023-02-15T07:06:56;172.45;;;70.03;;
44989;SDS011;30723;51.206;3.326;2023-02-15T07:09:22;170.82;;;70.43;;
44989;SDS011;30723;51.206;3.326;2023-02-15T07:11:48;168.90;;;71.20;;
44989;SDS011;30723;51.206;3.326;2023-02-15T07:14:33;167.05;;;68.85;;
44989;SDS011;30723;51.206;3.326;2023-02-15T07:17:00;163.93;;;69.53;;
44989;SDS011;30723;51.206;3.326;2023-02-15T07:19:27;163.98;;;67.00;;
44989;SDS011;30723;51.206;3.326;2023-02-15T07:21:52;159.93;;;66.80;;
44989;SDS011;30723;51.206;3.326;2023-02-15T07:24:18;156.82;;;66.47;;
44989;SDS011;30723;51.206;3.326;2023-02-15T07:26:45;162.57;;;66.80;;
44989;SDS011;30723;51.206;3.326;2023-02-15T07:29:12;162.20;;;68.95;;
44989;SDS011;30723;51.206;3.326;2023-02-15T07:31:38;192.00;;;87.03;;
44989;SDS011;30723;51.206;3.326;2023-02-15T07:34:05;161.95;;;68.90;;
44989;SDS011;30723;51.206;3.326;2023-02-15T07:36:32;160.85;;;68.15;;
44989;SDS011;30723;51.206;3.326;2023-02-15T07:38:58;190.70;;;70.97;;
44989;SDS011;30723;51.206;3.326;2023-02-15T07:41:25;179.00;;;74.90;;
44989;SDS011;30723;51.206;3.326;2023-02-15T07:43:51;177.25;;;70.80;;
44989;SDS011;30723;51.206;3.326;2023-02-15T07:46:18;182.57;;;73.78;;
44989;SDS011;30723;51.206;3.326;2023-02-15T07:48:45;176.65;;;72.70;;
44989;SDS011;30723;51.206;3.326;2023-02-15T07:51:13;178.98;;;72.15;;
44989;SDS011;30723;51.206;3.326;2023-02-15T07:53:39;181.02;;;73.28;;
44989;SDS011;30723;51.206;3.326;2023-02-15T07:56:07;188.65;;;72.07;;
44989;SDS011;30723;51.206;3.326;2023-02-15T07:58:36;185.35;;;73.95;;
44989;SDS011;30723;51.206;3.326;2023-02-15T08:01:22;179.43;;;77.20;;
44989;SDS011;30723;51.206;3.326;2023-02-15T08:03:53;198.27;;;80.28;;
44989;SDS011;30723;51.206;3.326;2023-02-15T08:06:24;209.85;;;88.70;;
44989;SDS011;30723;51.206;3.326;2023-02-15T08:08:52;207.15;;;93.28;;
44989;SDS011;30723;51.206;3.326;2023-02-15T08:11:20;226.73;;;92.05;;
44989;SDS011;30723;51.206;3.326;2023-02-15T08:13:51;198.32;;;85.43;;
44989;SDS011;30723;51.206;3.326;2023-02-15T08:16:36;196.65;;;82.68;;
44989;SDS011;30723;51.206;3.326;2023-02-15T08:21:38;195.00;;;78.15;;
44989;SDS011;30723;51.206;3.326;2023-02-15T08:24:09;190.63;;;78.28;;
44989;SDS011;30723;51.206;3.326;2023-02-15T08:26:37;195.98;;;84.22;;
44989;SDS011;30723;51.206;3.326;2023-02-15T08:29:05;183.55;;;76.93;;
44989;SDS011;30723;51.206;3.326;2023-02-15T08:31:33;190.43;;;78.00;;
44989;SDS011;30723;51.206;3.326;2023-02-15T08:34:03;181.20;;;74.68;;
44989;SDS011;30723;51.206;3.326;2023-02-15T08:36:30;181.10;;;73.55;;
44989;SDS011;30723;51.206;3.326;2023-02-15T08:38:57;176.95;;;75.03;;
44989;SDS011;30723;51.206;3.326;2023-02-15T08:41:26;180.50;;;75.50;;
44989;SDS011;30723;51.206;3.326;2023-02-15T08:43:55;170.27;;;72.95;;
44989;SDS011;30723;51.206;3.326;2023-02-15T08:46:23;164.50;;;73.50;;
44989;SDS011;30723;51.206;3.326;2023-02-15T08:48:52;152.27;;;66.97;;
44989;SDS011;30723;51.206;3.326;2023-02-15T08:51:19;158.00;;;67.53;;
44989;SDS011;30723;51.206;3.326;2023-02-15T08:53:52;149.07;;;66.68;;
44989;SDS011;30723;51.206;3.326;2023-02-15T08:56:22;143.07;;;64.40;;
44989;SDS011;30723;51.206;3.326;2023-02-15T08:58:50;140.25;;;64.55;;
44989;SDS011;30723;51.206;3.326;2023-02-15T09:01:22;141.05;;;63.50;;
44989;SDS011;30723;51.206;3.326;2023-02-15T09:04:00;131.40;;;62.80;;
44989;SDS011;30723;51.206;3.326;2023-02-15T09:06:43;129.57;;;60.33;;
44989;SDS011;30723;51.206;3.326;2023-02-15T09:09:10;124.75;;;62.85;;
44989;SDS011;30723;51.206;3.326;2023-02-15T09:11:39;116.95;;;58.40;;
44989;SDS011;30723;51.206;3.326;2023-02-15T09:14:11;127.63;;;61.63;;
44989;SDS011;30723;51.206;3.326;2023-02-15T09:16:52;118.20;;;57.47;;
44989;SDS011;30723;51.206;3.326;2023-02-15T09:19:20;114.22;;;55.55;;
44989;SDS011;30723;51.206;3.326;2023-02-15T09:21:47;105.65;;;55.63;;
44989;SDS011;30723;51.206;3.326;2023-02-15T09:24:15;108.88;;;57.47;;
44989;SDS011;30723;51.206;3.326;2023-02-15T09:26:46;113.87;;;56.30;;
44989;SDS011;30723;51.206;3.326;2023-02-15T09:29:13;108.00;;;54.05;;
44989;SDS011;30723;51.206;3.326;2023-02-15T09:31:41;99.38;;;51.30;;
44989;SDS011;30723;51.206;3.326;2023-02-15T09:34:10;95.18;;;48.72;;
44989;SDS011;30723;51.206;3.326;2023-02-15T09:36:38;94.75;;;51.13;;
44989;SDS011;30723;51.206;3.326;2023-02-15T09:39:13;88.82;;;46.78;;
44989;SDS011;30723;51.206;3.326;2023-02-15T09:50:54;79.63;;;44.65;;
44989;SDS011;30723;51.206;3.326;2023-02-15T09:56:26;79.72;;;43.03;;
44989;SDS011;30723;51.206;3.326;2023-02-15T09:59:11;82.63;;;42.67;;
44989;SDS011;30723;51.206;3.326;2023-02-15T10:01:48;79.32;;;43.83;;
44989;SDS011;30723;51.206;3.326;2023-02-15T10:09:40;73.40;;;41.85;;
44989;SDS011;30723;51.206;3.326;2023-02-15T10:12:35;81.28;;;41.40;;
44989;SDS011;30723;51.206;3.326;2023-02-15T10:15:19;80.53;;;41.67;;
44989;SDS011;30723;51.206;3.326;2023-02-15T10:17:51;75.78;;;41.63;;
44989;SDS011;30723;51.206;3.326;2023-02-15T10:20:36;75.03;;;40.42;;
44989;SDS011;30723;51.206;3.326;2023-02-15T10:23:10;67.38;;;39.28;;
44989;SDS011;30723;51.206;3.326;2023-02-15T10:26:11;74.25;;;41.75;;
44989;SDS011;30723;51.206;3.326;2023-02-15T10:29:09;80.57;;;40.95;;
44989;SDS011;30723;51.206;3.326;2023-02-15T10:32:05;69.45;;;39.03;;
44989;SDS011;30723;51.206;3.326;2023-02-15T10:34:58;74.70;;;40.70;;
44989;SDS011;30723;51.206;3.326;2023-02-15T10:54:23;60.05;;;36.17;;
44989;SDS011;30723;51.206;3.326;2023-02-15T11:06:21;57.15;;;34.92;;
44989;SDS011;30723;51.206;3.326;2023-02-15T11:09:13;51.97;;;32.72;;
44989;SDS011;30723;51.206;3.326;2023-02-15T11:12:02;52.70;;;32.13;;
44989;SDS011;30723;51.206;3.326;2023-02-15T11:17:52;56.80;;;34.17;;
44989;SDS011;30723;51.206;3.326;2023-02-15T11:21:17;50.70;;;32.72;;
44989;SDS011;30723;51.206;3.326;2023-02-15T11:23:48;51.78;;;33.75;;
44989;SDS011;30723;51.206;3.326;2023-02-15T11:26:18;53.80;;;32.42;;
44989;SDS011;30723;51.206;3.326;2023-02-15T11:31:43;52.88;;;32.95;;
44989;SDS011;30723;51.206;3.326;2023-02-15T11:34:36;53.05;;;32.30;;
44989;SDS011;30723;51.206;3.326;2023-02-15T11:37:07;62.35;;;34.65;;
44989;SDS011;30723;51.206;3.326;2023-02-15T11:39:41;63.90;;;32.38;;
44989;SDS011;30723;51.206;3.326;2023-02-15T11:42:15;56.92;;;34.28;;
44989;SDS011;30723;51.206;3.326;2023-02-15T11:47:22;59.63;;;33.08;;
44989;SDS011;30723;51.206;3.326;2023-02-15T11:49:48;58.70;;;35.28;;
44989;SDS011;30723;51.206;3.326;2023-02-15T11:52:16;56.47;;;36.33;;
44989;SDS011;30723;51.206;3.326;2023-02-15T11:54:45;57.30;;;36.45;;
44989;SDS011;30723;51.206;3.326;2023-02-15T11:57:19;53.35;;;34.05;;
44989;SDS011;30723;51.206;3.326;2023-02-15T11:59:48;54.42;;;34.95;;
44989;SDS011;30723;51.206;3.326;2023-02-15T12:02:19;54.78;;;34.55;;
44989;SDS011;30723;51.206;3.326;2023-02-15T12:04:48;55.50;;;35.20;;
44989;SDS011;30723;51.206;3.326;2023-02-15T12:12:32;63.53;;;35.72;;
44989;SDS011;30723;51.206;3.326;2023-02-15T12:15:04;63.28;;;35.97;;
44989;SDS011;30723;51.206;3.326;2023-02-15T12:17:34;62.35;;;37.08;;
44989;SDS011;30723;51.206;3.326;2023-02-15T12:20:03;55.17;;;34.28;;
44989;SDS011;30723;51.206;3.326;2023-02-15T12:22:52;55.42;;;34.65;;
44989;SDS011;30723;51.206;3.326;2023-02-15T12:25:40;56.22;;;36.10;;
44989;SDS011;30723;51.206;3.326;2023-02-15T12:28:26;58.95;;;38.13;;
44989;SDS011;30723;51.206;3.326;2023-02-15T12:30:55;54.15;;;35.17;;
44989;SDS011;30723;51.206;3.326;2023-02-15T12:35:58;57.13;;;37.88;;
44989;SDS011;30723;51.206;3.326;2023-02-15T12:38:28;51.65;;;33.10;;
44989;SDS011;30723;51.206;3.326;2023-02-15T12:41:02;43.58;;;30.13;;
44989;SDS011;30723;51.206;3.326;2023-02-15T12:43:45;50.20;;;33.47;;
44989;SDS011;30723;51.206;3.326;2023-02-15T12:46:19;45.65;;;31.17;;
44989;SDS011;30723;51.206;3.326;2023-02-15T12:51:45;95.38;;;59.40;;
44989;SDS011;30723;51.206;3.326;2023-02-15T12:54:35;50.97;;;32.22;;
44989;SDS011;30723;51.206;3.326;2023-02-15T13:00:05;48.72;;;30.67;;
44989;SDS011;30723;51.206;3.326;2023-02-15T13:03:00;45.63;;;29.95;;
44989;SDS011;30723;51.206;3.326;2023-02-15T13:10:37;50.38;;;33.30;;
44989;SDS011;30723;51.206;3.326;2023-02-15T13:13:31;40.30;;;28.95;;
44989;SDS011;30723;51.206;3.326;2023-02-15T13:16:24;49.20;;;31.88;;
44989;SDS011;30723;51.206;3.326;2023-02-15T13:19:09;45.70;;;29.45;;
44989;SDS011;30723;51.206;3.326;2023-02-15T13:21:44;45.55;;;31.67;;
44989;SDS011;30723;51.206;3.326;2023-02-15T13:26:49;46.50;;;30.98;;
44989;SDS011;30723;51.206;3.326;2023-02-15T13:29:27;47.70;;;31.25;;
44989;SDS011;30723;51.206;3.326;2023-02-15T13:32:10;51.47;;;30.23;;
44989;SDS011;30723;51.206;3.326;2023-02-15T13:34:50;51.63;;;30.15;;
44989;SDS011;30723;51.206;3.326;2023-02-15T13:37:33;42.45;;;28.65;;
44989;SDS011;30723;51.206;3.326;2023-02-15T13:46:03;45.88;;;30.48;;
44989;SDS011;30723;51.206;3.326;2023-02-15T13:51:13;55.25;;;33.47;;
44989;SDS011;30723;51.206;3.326;2023-02-15T13:53:54;47.25;;;31.40;;
44989;SDS011;30723;51.206;3.326;2023-02-15T14:00:22;47.20;;;31.05;;
44989;SDS011;30723;51.206;3.326;2023-02-15T14:31:23;52.85;;;31.95;;
44989;SDS011;30723;51.206;3.326;2023-02-15T14:34:08;46.53;;;30.00;;
44989;SDS011;30723;51.206;3.326;2023-02-15T14:36:55;52.67;;;31.63;;
44989;SDS011;30723;51.206;3.326;2023-02-15T14:39:26;47.03;;;30.38;;
44989;SDS011;30723;51.206;3.326;2023-02-15T14:45:17;49.53;;;29.75;;
44989;SDS011;30723;51.206;3.326;2023-02-15T14:50:47;48.85;;;29.73;;
44989;SDS011;30723;51.206;3.326;2023-02-15T14:53:22;71.35;;;45.15;;
44989;SDS011;30723;51.206;3.326;2023-02-15T14:58:32;54.05;;;35.55;;
44989;SDS011;30723;51.206;3.326;2023-02-15T15:01:17;52.35;;;31.30;;
44989;SDS011;30723;51.206;3.326;2023-02-15T15:04:07;49.38;;;30.98;;
44989;SDS011;30723;51.206;3.326;2023-02-15T15:06:41;50.72;;;31.17;;
44989;SDS011;30723;51.206;3.326;2023-02-15T15:11:53;58.05;;;34.85;;
44989;SDS011;30723;51.206;3.326;2023-02-15T15:14:39;55.90;;;33.53;;
44989;SDS011;30723;51.206;3.326;2023-02-15T15:19:57;59.05;;;33.85;;
44989;SDS011;30723;51.206;3.326;2023-02-15T15:22:24;63.17;;;34.97;;
44989;SDS011;30723;51.206;3.326;2023-02-15T15:24:56;60.63;;;36.20;;
44989;SDS011;30723;51.206;3.326;2023-02-15T15:35:34;55.53;;;33.47;;
44989;SDS011;30723;51.206;3.326;2023-02-15T15:40:56;54.95;;;33.22;;
44989;SDS011;30723;51.206;3.326;2023-02-15T15:48:59;52.28;;;31.98;;
44989;SDS011;30723;51.206;3.326;2023-02-15T15:51:31;52.85;;;31.77;;
44989;SDS011;30723;51.206;3.326;2023-02-15T15:53:58;52.65;;;31.38;;
44989;SDS011;30723;51.206;3.326;2023-02-15T15:56:28;54.17;;;33.55;;
44989;SDS011;30723;51.206;3.326;2023-02-15T15:59:06;52.50;;;34.88;;
44989;SDS011;30723;51.206;3.326;2023-02-15T16:01:42;58.90;;;39.67;;
44989;SDS011;30723;51.206;3.326;2023-02-15T16:04:21;57.67;;;37.35;;
44989;SDS011;30723;51.206;3.326;2023-02-15T16:06:50;64.10;;;32.33;;
44989;SDS011;30723;51.206;3.326;2023-02-15T16:09:23;53.55;;;33.15;;
44989;SDS011;30723;51.206;3.326;2023-02-15T16:12:00;52.78;;;30.48;;
44989;SDS011;30723;51.206;3.326;2023-02-15T16:14:43;53.20;;;30.50;;
44989;SDS011;30723;51.206;3.326;2023-02-15T16:17:17;171.57;;;78.03;;
44989;SDS011;30723;51.206;3.326;2023-02-15T16:19:52;132.50;;;67.00;;
44989;SDS011;30723;51.206;3.326;2023-02-15T16:22:23;169.73;;;84.30;;
44989;SDS011;30723;51.206;3.326;2023-02-15T16:27:33;101.22;;;56.28;;
44989;SDS011;30723;51.206;3.326;2023-02-15T16:30:16;78.40;;;47.30;;
44989;SDS011;30723;51.206;3.326;2023-02-15T16:33:06;72.47;;;38.90;;
44989;SDS011;30723;51.206;3.326;2023-02-15T16:35:35;73.82;;;40.83;;
44989;SDS011;30723;51.206;3.326;2023-02-15T16:38:03;80.97;;;45.75;;
44989;SDS011;30723;51.206;3.326;2023-02-15T16:43:15;75.45;;;40.53;;
44989;SDS011;30723;51.206;3.326;2023-02-15T16:45:44;70.45;;;39.92;;
44989;SDS011;30723;51.206;3.326;2023-02-15T16:48:16;68.03;;;40.20;;
44989;SDS011;30723;51.206;3.326;2023-02-15T16:50:53;70.85;;;40.17;;
44989;SDS011;30723;51.206;3.326;2023-02-15T16:53:35;83.93;;;42.58;;
44989;SDS011;30723;51.206;3.326;2023-02-15T16:56:03;70.10;;;41.50;;
44989;SDS011;30723;51.206;3.326;2023-02-15T16:58:41;80.30;;;43.67;;
44989;SDS011;30723;51.206;3.326;2023-02-15T17:01:20;80.10;;;42.40;;
44989;SDS011;30723;51.206;3.326;2023-02-15T17:03:49;71.63;;;42.95;;
44989;SDS011;30723;51.206;3.326;2023-02-15T17:06:35;68.60;;;42.50;;
44989;SDS011;30723;51.206;3.326;2023-02-15T17:09:05;72.28;;;41.72;;
44989;SDS011;30723;51.206;3.326;2023-02-15T17:11:47;81.82;;;44.22;;
44989;SDS011;30723;51.206;3.326;2023-02-15T17:14:18;70.70;;;41.75;;
44989;SDS011;30723;51.206;3.326;2023-02-15T17:16:47;80.25;;;42.15;;
44989;SDS011;30723;51.206;3.326;2023-02-15T17:19:20;72.43;;;43.25;;
44989;SDS011;30723;51.206;3.326;2023-02-15T17:22:02;73.00;;;44.53;;
44989;SDS011;30723;51.206;3.326;2023-02-15T17:24:39;79.53;;;46.10;;
44989;SDS011;30723;51.206;3.326;2023-02-15T17:27:26;69.82;;;43.60;;
44989;SDS011;30723;51.206;3.326;2023-02-15T17:30:01;76.20;;;45.70;;
44989;SDS011;30723;51.206;3.326;2023-02-15T17:32:30;88.15;;;48.83;;
44989;SDS011;30723;51.206;3.326;2023-02-15T17:37:54;87.13;;;47.75;;
44989;SDS011;30723;51.206;3.326;2023-02-15T17:40:28;86.25;;;50.05;;
44989;SDS011;30723;51.206;3.326;2023-02-15T17:45:30;108.28;;;59.65;;
44989;SDS011;30723;51.206;3.326;2023-02-15T17:48:32;88.47;;;53.10;;
44989;SDS011;30723;51.206;3.326;2023-02-15T17:51:05;87.40;;;47.95;;
44989;SDS011;30723;51.206;3.326;2023-02-15T17:53:36;77.45;;;45.35;;
44989;SDS011;30723;51.206;3.326;2023-02-15T17:56:29;76.03;;;44.88;;
44989;SDS011;30723;51.206;3.326;2023-02-15T17:58:56;81.82;;;44.97;;
44989;SDS011;30723;51.206;3.326;2023-02-15T18:01:22;75.65;;;44.45;;
44989;SDS011;30723;51.206;3.326;2023-02-15T18:04:10;72.90;;;41.63;;
44989;SDS011;30723;51.206;3.326;2023-02-15T18:06:56;88.85;;;49.13;;
44989;SDS011;30723;51.206;3.326;2023-02-15T18:09:41;92.60;;;46.55;;
44989;SDS011;30723;51.206;3.326;2023-02-15T18:12:31;83.57;;;48.15;;
44989;SDS011;30723;51.206;3.326;2023-02-15T18:15:00;84.00;;;47.95;;